createdAt,value
2022-12-23T00:02:21.772Z,99096.81
2022-12-23T00:04:48.852Z,99100.19
2022-12-23T00:07:15.883Z,99095.63
2022-12-23T00:09:42.851Z,99087.59
2022-12-23T00:12:28.496Z,99085.09
2022-12-23T00:15:07.914Z,99085.22
2022-12-23T00:17:37.643Z,99094.97
2022-12-23T00:20:06.333Z,99092.50
2022-12-23T00:22:51.767Z,99084.91
2022-12-23T00:25:19.095Z,99103.66
2022-12-23T00:28:01.792Z,99097.56
2022-12-23T00:30:28.965Z,99098.50
2022-12-23T00:32:56.045Z,99099.47
2022-12-23T00:35:23.030Z,99097.03
2022-12-23T00:37:49.944Z,99102.41
2022-12-23T00:40:35.795Z,99097.56
2022-12-23T00:43:02.955Z,99109.88
2022-12-23T00:45:29.991Z,99110.94
2022-12-23T00:48:15.455Z,99111.94
2022-12-23T00:50:43.544Z,99107.66
2022-12-23T00:53:10.630Z,99120.03
2022-12-23T00:55:37.697Z,99115.78
2022-12-23T00:58:04.852Z,99103.72
2022-12-23T01:00:50.691Z,99108.19
2022-12-23T01:03:36.175Z,99101.38
2022-12-23T01:06:03.835Z,99115.16
2022-12-23T01:08:31.065Z,99097.19
2022-12-23T01:11:02.323Z,99103.25
2022-12-23T01:13:29.768Z,99101.63
2022-12-23T01:16:07.443Z,99103.31
2022-12-23T01:18:37.395Z,99087.81
2022-12-23T01:21:07.515Z,99095.63
2022-12-23T01:23:35.539Z,99103.38
2022-12-23T01:26:04.802Z,99096.34
2022-12-23T01:28:32.943Z,99092.88
2022-12-23T01:31:01.288Z,99097.19
2022-12-23T01:33:28.972Z,99093.19
2022-12-23T01:36:08.443Z,99101.66
2022-12-23T01:38:35.599Z,99092.28
2022-12-23T01:41:02.742Z,99090.50
2022-12-23T01:43:50.574Z,99098.41
2022-12-23T01:46:18.875Z,99095.06
2022-12-23T01:48:50.872Z,99099.44
2022-12-23T01:51:29.507Z,99095.13
2022-12-23T01:54:01.505Z,99084.78
2022-12-23T01:56:46.927Z,99091.06
2022-12-23T01:59:35.314Z,99086.03
2022-12-23T02:02:21.510Z,99082.44
2022-12-23T02:04:50.630Z,99085.00
2022-12-23T02:07:36.847Z,99085.84
2022-12-23T02:10:05.899Z,99092.66
2022-12-23T02:13:00.505Z,99085.97
2022-12-23T02:15:48.976Z,99093.63
2022-12-23T02:18:28.032Z,99086.78
2022-12-23T02:21:27.884Z,99089.31
2022-12-23T02:24:20.178Z,99086.88
2022-12-23T02:27:05.343Z,99086.03
2022-12-23T02:29:56.069Z,99079.94
2022-12-23T02:32:50.213Z,99076.72
2022-12-23T02:35:45.358Z,99082.72
2022-12-23T02:38:17.422Z,99080.94
2022-12-23T02:41:05.952Z,99091.28
2022-12-23T02:43:50.229Z,99087.94
2022-12-23T02:46:35.631Z,99095.50
2022-12-23T02:49:12.364Z,99083.47
2022-12-23T02:51:42.979Z,99084.44
2022-12-23T02:54:15.095Z,99092.13
2022-12-23T02:56:46.613Z,99092.31
2022-12-23T02:59:21.879Z,99075.88
2022-12-23T03:01:50.362Z,99094.06
2022-12-23T03:04:17.569Z,99079.31
2022-12-23T03:06:48.871Z,99089.69
2022-12-23T03:09:27.131Z,99081.03
2022-12-23T03:12:03.738Z,99080.00
2022-12-23T03:14:49.016Z,99081.59
2022-12-23T03:17:46.976Z,99087.47
2022-12-23T03:20:13.843Z,99084.91
2022-12-23T03:22:50.064Z,99079.56
2022-12-23T03:25:35.932Z,99076.78
2022-12-23T03:28:22.072Z,99082.91
2022-12-23T03:30:53.640Z,99076.69
2022-12-23T03:33:27.179Z,99088.13
2022-12-23T03:36:01.523Z,99074.22
2022-12-23T03:38:30.920Z,99087.13
2022-12-23T03:41:05.360Z,99086.31
2022-12-23T03:43:51.090Z,99075.78
2022-12-23T03:46:32.083Z,99086.28
2022-12-23T03:49:03.937Z,99079.38
2022-12-23T03:51:55.612Z,99077.63
2022-12-23T03:54:36.684Z,99070.63
2022-12-23T03:57:07.767Z,99074.94
2022-12-23T03:59:43.022Z,99071.41
2022-12-23T04:02:15.045Z,99082.63
2022-12-23T04:05:04.381Z,99077.53
2022-12-23T04:07:37.049Z,99073.16
2022-12-23T04:10:05.271Z,99072.31
2022-12-23T04:12:33.433Z,99075.84
2022-12-23T04:15:00.706Z,99068.94
2022-12-23T04:17:29.379Z,99080.25
2022-12-23T04:19:56.923Z,99074.09
2022-12-23T04:22:24.193Z,99070.66
2022-12-23T04:24:51.183Z,99071.63
2022-12-23T04:27:18.222Z,99074.09
2022-12-23T04:29:45.596Z,99068.88
2022-12-23T04:32:12.832Z,99074.78
2022-12-23T04:34:39.843Z,99065.41
2022-12-23T04:37:07.293Z,99063.63
2022-12-23T04:39:34.380Z,99059.09
2022-12-23T04:42:01.368Z,99069.41
2022-12-23T04:44:28.338Z,99050.16
2022-12-23T04:46:55.839Z,99064.13
2022-12-23T04:49:22.936Z,99072.91
2022-12-23T04:51:49.885Z,99059.94
2022-12-23T04:54:18.563Z,99060.66
2022-12-23T04:56:45.537Z,99065.78
2022-12-23T04:59:12.504Z,99057.75
2022-12-23T05:01:40.119Z,99064.91
2022-12-23T05:04:07.454Z,99060.50
2022-12-23T05:06:34.530Z,99069.06
2022-12-23T05:09:01.541Z,99068.97
2022-12-23T05:11:28.584Z,99075.94
2022-12-23T05:13:56.013Z,99078.56
2022-12-23T05:16:23.323Z,99074.41
2022-12-23T05:18:50.484Z,99073.56
2022-12-23T05:21:17.944Z,99071.00
2022-12-23T05:23:45.140Z,99075.41
2022-12-23T05:26:12.055Z,99076.31
2022-12-23T05:28:39.078Z,99074.78
2022-12-23T05:31:08.200Z,99075.63
2022-12-23T05:33:35.861Z,99062.63
2022-12-23T05:36:03.364Z,99063.34
2022-12-23T05:38:30.447Z,99062.63
2022-12-23T05:40:58.110Z,99077.91
2022-12-23T05:43:25.636Z,99079.47
2022-12-23T05:45:53.113Z,99071.50
2022-12-23T05:48:20.279Z,99062.91
2022-12-23T05:50:51.366Z,99067.84
2022-12-23T05:53:19.834Z,99075.44
2022-12-23T05:55:47.282Z,99065.75
2022-12-23T05:58:14.705Z,99068.28
2022-12-23T06:00:41.702Z,99067.63
2022-12-23T06:03:09.070Z,99069.28
2022-12-23T06:05:38.000Z,99071.81
2022-12-23T06:08:11.883Z,99075.13
2022-12-23T06:10:38.942Z,99076.56
2022-12-23T06:13:06.004Z,99080.09
2022-12-23T06:15:33.015Z,99073.50
2022-12-23T06:18:00.043Z,99072.84
2022-12-23T06:20:27.480Z,99089.91
2022-12-23T06:22:54.907Z,99079.56
2022-12-23T06:25:21.855Z,99089.22
2022-12-23T06:27:48.923Z,99085.22
2022-12-23T06:30:16.617Z,99104.06
2022-12-23T06:32:43.869Z,99094.59
2022-12-23T06:35:11.039Z,99103.13
2022-12-23T06:37:38.273Z,99098.41
2022-12-23T06:40:06.038Z,99094.91
2022-12-23T06:42:33.462Z,99103.28
2022-12-23T06:45:00.586Z,99091.31
2022-12-23T06:47:27.587Z,99104.31
2022-12-23T06:49:55.469Z,99123.44
2022-12-23T06:52:24.255Z,99105.09
2022-12-23T06:54:51.299Z,99113.00
2022-12-23T06:57:18.531Z,99107.75
2022-12-23T06:59:45.611Z,99104.88
2022-12-23T07:02:12.934Z,99113.25
2022-12-23T07:04:40.211Z,99112.69
2022-12-23T07:07:07.392Z,99118.16
2022-12-23T07:09:34.975Z,99113.00
2022-12-23T07:12:03.873Z,99117.16
2022-12-23T07:14:31.117Z,99118.75
2022-12-23T07:16:58.355Z,99116.75
2022-12-23T07:19:25.732Z,99115.50
2022-12-23T07:21:52.901Z,99110.75
2022-12-23T07:24:20.013Z,99118.63
2022-12-23T07:26:47.027Z,99107.22
2022-12-23T07:29:14.221Z,99102.78
2022-12-23T07:31:41.526Z,99114.84
2022-12-23T07:34:09.477Z,99108.59
2022-12-23T07:36:36.612Z,99119.81
2022-12-23T07:39:03.863Z,99118.09
2022-12-23T07:41:31.341Z,99111.19
2022-12-23T07:43:58.350Z,99110.25
2022-12-23T07:46:25.427Z,99111.00
2022-12-23T07:48:52.437Z,99128.34
2022-12-23T07:51:19.614Z,99119.84
2022-12-23T07:53:50.920Z,99136.28
2022-12-23T07:56:19.743Z,99131.94
2022-12-23T07:58:50.573Z,99139.59
2022-12-23T08:01:18.352Z,99137.19
2022-12-23T08:03:45.878Z,99137.34
2022-12-23T08:06:14.771Z,99142.63
2022-12-23T08:08:44.212Z,99146.13
2022-12-23T08:11:13.301Z,99152.19
2022-12-23T08:13:42.532Z,99142.56
2022-12-23T08:16:10.409Z,99146.03
2022-12-23T08:18:39.644Z,99149.50
2022-12-23T08:21:13.579Z,99157.28
2022-12-23T08:23:40.693Z,99149.50
2022-12-23T08:26:13.481Z,99145.13
2022-12-23T08:28:42.711Z,99147.69
2022-12-23T08:31:16.981Z,99145.03
2022-12-23T08:33:46.513Z,99144.13
2022-12-23T08:36:22.407Z,99142.16
2022-12-23T08:38:51.902Z,99147.56
2022-12-23T08:41:24.926Z,99148.56
2022-12-23T08:43:52.269Z,99143.06
2022-12-23T08:46:20.012Z,99146.06
2022-12-23T08:48:49.743Z,99140.59
2022-12-23T08:51:18.885Z,99138.03
2022-12-23T08:53:47.022Z,99129.44
2022-12-23T08:56:20.145Z,99133.81
2022-12-23T08:58:49.081Z,99131.44
2022-12-23T09:01:19.561Z,99128.94
2022-12-23T09:03:46.881Z,99129.59
2022-12-23T09:06:29.967Z,99134.00
2022-12-23T09:08:58.088Z,99133.44
2022-12-23T09:11:27.215Z,99122.72
2022-12-23T09:13:55.104Z,99135.88
2022-12-23T09:16:23.226Z,99125.69
2022-12-23T09:18:50.551Z,99138.59
2022-12-23T09:21:22.565Z,99134.78
2022-12-23T09:23:49.817Z,99148.31
2022-12-23T09:26:34.930Z,99137.03
2022-12-23T09:29:03.555Z,99128.47
2022-12-23T09:31:36.736Z,99125.53
2022-12-23T09:34:05.246Z,99121.63
2022-12-23T09:36:32.431Z,99124.34
2022-12-23T09:38:59.624Z,99115.13
2022-12-23T09:41:54.893Z,99105.28
2022-12-23T09:44:42.124Z,99101.44
2022-12-23T09:47:17.723Z,99103.34
2022-12-23T09:50:03.308Z,99091.38
2022-12-23T09:52:50.113Z,99096.34
2022-12-23T09:55:18.648Z,99090.66
2022-12-23T09:58:01.329Z,99089.53
2022-12-23T10:00:34.113Z,99086.63
2022-12-23T10:03:44.442Z,99083.38
2022-12-23T10:06:19.822Z,99083.94
2022-12-23T10:08:50.036Z,99086.59
2022-12-23T10:11:24.923Z,99080.47
2022-12-23T10:13:51.723Z,99081.47
2022-12-23T10:16:24.332Z,99081.63
2022-12-23T10:18:57.857Z,99081.31
2022-12-23T10:21:47.158Z,99077.16
2022-12-23T10:24:23.231Z,99081.88
2022-12-23T10:26:50.204Z,99078.03
2022-12-23T10:29:20.702Z,99064.16
2022-12-23T10:32:17.188Z,99053.91
2022-12-23T10:35:05.371Z,99052.88
2022-12-23T10:37:35.511Z,99056.34
2022-12-23T10:40:20.485Z,99055.22
2022-12-23T10:42:53.356Z,99051.00
2022-12-23T10:45:43.405Z,99049.56
2022-12-23T10:48:19.224Z,99046.19
2022-12-23T10:50:55.213Z,99054.94
2022-12-23T10:53:35.720Z,99054.50
2022-12-23T10:56:05.303Z,99042.94
2022-12-23T10:58:32.456Z,99045.72
2022-12-23T11:01:09.929Z,99045.53
2022-12-23T11:03:59.336Z,99046.72
2022-12-23T11:06:33.151Z,99039.88
2022-12-23T11:09:04.027Z,99035.84
2022-12-23T11:11:55.156Z,99026.00
2022-12-23T11:14:42.078Z,99022.66
2022-12-23T11:17:22.240Z,99027.38
2022-12-23T11:20:14.529Z,99013.25
2022-12-23T11:22:50.286Z,99027.59
2022-12-23T11:25:46.162Z,99016.84
2022-12-23T11:28:18.112Z,99022.44
2022-12-23T11:30:55.828Z,99020.78
2022-12-23T11:33:32.637Z,99019.59
2022-12-23T11:36:18.522Z,99017.31
2022-12-23T11:39:13.433Z,99011.19
2022-12-23T11:41:47.945Z,99007.97
2022-12-23T11:44:14.853Z,99018.53
2022-12-23T11:46:41.832Z,99008.91
2022-12-23T11:49:34.192Z,99027.44
2022-12-23T11:52:02.560Z,99028.28
2022-12-23T11:54:31.508Z,99029.03
2022-12-23T11:57:00.972Z,99023.25
2022-12-23T11:59:38.596Z,99020.41
2022-12-23T12:02:14.466Z,99032.97
2022-12-23T12:04:43.028Z,99033.63
2022-12-23T12:07:14.725Z,99017.69
2022-12-23T12:09:43.857Z,99028.44
2022-12-23T12:12:17.603Z,99021.41
2022-12-23T12:14:49.118Z,99010.09
2022-12-23T12:17:27.844Z,99018.56
2022-12-23T12:20:13.775Z,99019.50
2022-12-23T12:22:49.887Z,99012.50
2022-12-23T12:25:37.904Z,99001.34
2022-12-23T12:28:13.922Z,99002.59
2022-12-23T12:31:13.689Z,99007.19
2022-12-23T12:33:53.915Z,99015.00
2022-12-23T12:36:26.516Z,98999.28
2022-12-23T12:38:55.546Z,98994.75
2022-12-23T12:41:39.844Z,98988.78
2022-12-23T12:44:38.448Z,98989.56
2022-12-23T12:47:36.202Z,98994.81
2022-12-23T12:50:12.463Z,98984.38
2022-12-23T12:52:42.708Z,98999.19
2022-12-23T12:55:29.192Z,98994.25
2022-12-23T12:57:56.141Z,98995.94
2022-12-23T13:00:25.762Z,98983.81
2022-12-23T13:03:27.695Z,98984.50
2022-12-23T13:06:19.649Z,98988.06
2022-12-23T13:08:46.483Z,98984.59
2022-12-23T13:11:45.631Z,98980.25
2022-12-23T13:14:34.964Z,98981.97
2022-12-23T13:17:18.890Z,98989.13
2022-12-23T13:20:03.842Z,98987.31
2022-12-23T13:22:34.415Z,98990.63
2022-12-23T13:25:08.779Z,98990.72
2022-12-23T13:28:02.893Z,98996.78
2022-12-23T13:30:52.289Z,99002.06
2022-12-23T13:33:25.669Z,98991.81
2022-12-23T13:36:07.645Z,98998.63
2022-12-23T13:38:49.472Z,98980.72
2022-12-23T13:41:21.961Z,98986.84
2022-12-23T13:43:58.626Z,98978.91
2022-12-23T13:46:44.306Z,98982.41
2022-12-23T13:49:32.859Z,98993.75
2022-12-23T13:52:07.767Z,98983.50
2022-12-23T13:54:51.558Z,98996.69
2022-12-23T13:58:06.350Z,99004.63
2022-12-23T14:00:34.999Z,98998.56
2022-12-23T14:03:02.141Z,99000.38
2022-12-23T14:05:50.901Z,99003.84
2022-12-23T14:08:20.568Z,98998.66
2022-12-23T14:10:56.853Z,98982.16
2022-12-23T14:13:27.160Z,98989.09
2022-12-23T14:16:12.565Z,98997.88
2022-12-23T14:19:03.666Z,98987.50
2022-12-23T14:21:41.867Z,99003.16
2022-12-23T14:24:27.051Z,98996.25
2022-12-23T14:27:06.052Z,99001.50
2022-12-23T14:29:38.264Z,98993.75
2022-12-23T14:32:18.109Z,98992.09
2022-12-23T14:35:04.555Z,98992.91
2022-12-23T14:37:36.303Z,98992.09
2022-12-23T14:40:39.340Z,99005.16
2022-12-23T14:43:26.749Z,99012.16
2022-12-23T14:46:00.061Z,99012.19
2022-12-23T14:48:42.017Z,99015.72
2022-12-23T14:51:08.774Z,99018.34
2022-12-23T14:53:58.568Z,99016.59
2022-12-23T14:56:43.425Z,99020.97
2022-12-23T14:59:30.389Z,99024.47
2022-12-23T15:02:00.756Z,99025.31
2022-12-23T15:04:35.207Z,99023.56
2022-12-23T15:07:08.389Z,99018.41
2022-12-23T15:09:47.595Z,99027.09
2022-12-23T15:12:32.801Z,99034.88
2022-12-23T15:15:04.042Z,99034.03
2022-12-23T15:17:33.776Z,99030.56
2022-12-23T15:20:08.529Z,99033.16
2022-12-23T15:22:35.579Z,99031.41
2022-12-23T15:25:05.069Z,99032.25
2022-12-23T15:27:36.437Z,99031.38
2022-12-23T15:30:03.632Z,99032.19
2022-12-23T15:32:30.642Z,99024.38
2022-12-23T15:35:05.332Z,99025.25
2022-12-23T15:37:39.709Z,99027.81
2022-12-23T15:40:13.051Z,99021.72
2022-12-23T15:42:47.881Z,99033.78
2022-12-23T15:45:36.323Z,99014.66
2022-12-23T15:48:05.438Z,99017.22
2022-12-23T15:50:40.589Z,99020.63
2022-12-23T15:53:10.758Z,99024.09
2022-12-23T15:55:40.794Z,99030.97
2022-12-23T15:58:15.525Z,99034.34
2022-12-23T16:00:53.245Z,99035.16
2022-12-23T16:03:26.717Z,99040.34
2022-12-23T16:05:53.749Z,99035.13
2022-12-23T16:08:29.655Z,99039.38
2022-12-23T16:10:57.049Z,99037.72
2022-12-23T16:13:23.917Z,99047.19
2022-12-23T16:15:50.826Z,99031.53
2022-12-23T16:18:28.671Z,99020.09
2022-12-23T16:20:59.781Z,99023.34
2022-12-23T16:23:30.403Z,99026.13
2022-12-23T16:26:00.407Z,99030.41
2022-12-23T16:28:39.924Z,99032.09
2022-12-23T16:31:08.326Z,99038.97
2022-12-23T16:33:39.852Z,99037.97
2022-12-23T16:36:27.819Z,99026.19
2022-12-23T16:39:06.076Z,99030.47
2022-12-23T16:41:35.514Z,99026.22
2022-12-23T16:44:03.336Z,99040.84
2022-12-23T16:46:37.783Z,99032.97
2022-12-23T16:49:11.051Z,99031.53
2022-12-23T16:51:40.356Z,99037.44
2022-12-23T16:54:13.566Z,99026.19
2022-12-23T16:56:41.117Z,99029.59
2022-12-23T16:59:08.241Z,99036.34
2022-12-23T17:01:38.513Z,99027.75
2022-12-23T17:04:06.940Z,99026.00
2022-12-23T17:06:34.765Z,99027.69
2022-12-23T17:09:02.492Z,99023.25
2022-12-23T17:11:37.466Z,99030.22
2022-12-23T17:14:10.390Z,99028.91
2022-12-23T17:16:40.672Z,99030.41
2022-12-23T17:19:07.648Z,99029.34
2022-12-23T17:21:39.411Z,99033.84
2022-12-23T17:24:20.400Z,99030.22
2022-12-23T17:26:47.244Z,99036.16
2022-12-23T17:29:14.480Z,99034.50
2022-12-23T17:31:43.327Z,99034.28
2022-12-23T17:34:17.221Z,99027.22
2022-12-23T17:36:49.538Z,99025.50
2022-12-23T17:39:17.454Z,99022.06
2022-12-23T17:41:44.661Z,99007.47
2022-12-23T17:44:14.797Z,99021.16
2022-12-23T17:46:41.872Z,99018.53
2022-12-23T17:49:09.037Z,99006.53
2022-12-23T17:51:36.253Z,99022.13
2022-12-23T17:54:05.103Z,99019.31
2022-12-23T17:56:33.230Z,99026.16
2022-12-23T17:59:00.315Z,99030.16
2022-12-23T18:01:30.347Z,99035.00
2022-12-23T18:04:00.262Z,99026.31
2022-12-23T18:06:28.986Z,99026.91
2022-12-23T18:08:59.916Z,99029.50
2022-12-23T18:11:35.717Z,99035.38
2022-12-23T18:14:04.195Z,99039.47
2022-12-23T18:16:31.667Z,99047.06
2022-12-23T18:18:58.753Z,99039.22
2022-12-23T18:21:29.649Z,99047.84
2022-12-23T18:23:59.977Z,99040.72
2022-12-23T18:26:27.234Z,99037.94
2022-12-23T18:28:54.708Z,99047.53
2022-12-23T18:31:25.954Z,99045.50
2022-12-23T18:33:53.615Z,99049.84
2022-12-23T18:36:24.875Z,99067.16
2022-12-23T18:38:53.075Z,99054.09
2022-12-23T18:41:21.349Z,99052.31
2022-12-23T18:43:48.856Z,99060.59
2022-12-23T18:46:16.336Z,99054.31
2022-12-23T18:48:43.510Z,99056.81
2022-12-23T18:51:18.481Z,99062.88
2022-12-23T18:53:47.093Z,99056.84
2022-12-23T18:56:16.107Z,99065.53
2022-12-23T18:58:43.239Z,99057.06
2022-12-23T19:01:15.398Z,99059.81
2022-12-23T19:03:43.157Z,99068.84
2022-12-23T19:06:14.280Z,99068.81
2022-12-23T19:08:43.114Z,99065.25
2022-12-23T19:11:15.584Z,99071.25
2022-12-23T19:13:43.044Z,99072.44
2022-12-23T19:16:15.951Z,99066.66
2022-12-23T19:18:44.069Z,99056.66
2022-12-23T19:21:11.209Z,99061.66
2022-12-23T19:23:40.467Z,99060.66
2022-12-23T19:26:10.265Z,99059.69
2022-12-23T19:28:38.730Z,99056.59
2022-12-23T19:31:14.745Z,99059.38
2022-12-23T19:33:44.222Z,99063.94
2022-12-23T19:36:19.613Z,99051.53
2022-12-23T19:38:46.643Z,99053.88
2022-12-23T19:41:18.453Z,99047.91
2022-12-23T19:43:46.911Z,99042.72
2022-12-23T19:46:15.477Z,99054.34
2022-12-23T19:48:43.184Z,99056.06
2022-12-23T19:51:13.433Z,99055.16
2022-12-23T19:53:42.153Z,99053.69
2022-12-23T19:56:13.880Z,99048.66
2022-12-23T19:58:42.477Z,99040.53
2022-12-23T20:01:14.206Z,99049.50
2022-12-23T20:03:42.583Z,99046.44
2022-12-23T20:06:16.021Z,99048.84
2022-12-23T20:08:44.133Z,99048.66
2022-12-23T20:11:17.180Z,99054.25
2022-12-23T20:13:45.648Z,99056.69
2022-12-23T20:16:13.577Z,99049.16
2022-12-23T20:18:41.044Z,99056.06
2022-12-23T20:21:08.305Z,99039.00
2022-12-23T20:23:35.845Z,99046.00
2022-12-23T20:26:03.171Z,99032.25
2022-12-23T20:28:30.943Z,99029.72
2022-12-23T20:31:10.461Z,99035.75
2022-12-23T20:33:38.809Z,99034.13
2022-12-23T20:36:07.266Z,99025.31
2022-12-23T20:38:35.299Z,99035.34
2022-12-23T20:41:03.796Z,99035.75
2022-12-23T20:43:31.005Z,99034.22
2022-12-23T20:45:58.701Z,99034.22
2022-12-23T20:48:31.708Z,99035.16
2022-12-23T20:51:09.855Z,99042.19
2022-12-23T20:53:39.129Z,99034.50
2022-12-23T20:56:08.841Z,99045.53
2022-12-23T20:58:56.639Z,99037.84
2022-12-23T21:01:28.752Z,99041.56
2022-12-23T21:03:57.992Z,99042.44
2022-12-23T21:06:26.079Z,99036.34
2022-12-23T21:08:58.500Z,99039.97
2022-12-23T21:11:29.970Z,99039.84
2022-12-23T21:14:06.257Z,99026.28
2022-12-23T21:16:36.615Z,99017.69
2022-12-23T21:19:05.527Z,99026.44
2022-12-23T21:21:32.735Z,99023.28
2022-12-23T21:24:02.660Z,99014.66
2022-12-23T21:26:31.704Z,99022.66
2022-12-23T21:29:00.586Z,99020.13
2022-12-23T21:31:30.535Z,99029.66
2022-12-23T21:33:58.833Z,99032.78
2022-12-23T21:36:32.386Z,99011.00
2022-12-23T21:39:00.481Z,99010.72
2022-12-23T21:41:30.227Z,99006.59
2022-12-23T21:43:59.444Z,98992.78
2022-12-23T21:46:28.445Z,99002.38
2022-12-23T21:48:57.311Z,99000.69
2022-12-23T21:51:40.331Z,99006.78
2022-12-23T21:54:09.773Z,99010.34
2022-12-23T21:56:37.500Z,99005.00
2022-12-23T21:59:08.733Z,99007.97
2022-12-23T22:01:35.884Z,99004.53
2022-12-23T22:04:03.883Z,98989.94
2022-12-23T22:06:36.296Z,98995.97
2022-12-23T22:09:04.844Z,98985.31
2022-12-23T22:11:34.584Z,98988.78
2022-12-23T22:14:04.412Z,98992.13
2022-12-23T22:16:32.766Z,98989.06
2022-12-23T22:19:01.652Z,98979.31
2022-12-23T22:21:31.319Z,98989.56
2022-12-23T22:23:59.826Z,98989.41
2022-12-23T22:26:30.527Z,98975.78
2022-12-23T22:29:00.292Z,98979.88
2022-12-23T22:33:34.582Z,98985.91
2022-12-23T22:36:01.676Z,98988.56
2022-12-23T22:38:28.876Z,98993.94
2022-12-23T22:40:56.408Z,98995.56
2022-12-23T22:43:23.659Z,98980.53
2022-12-23T22:45:58.788Z,98990.94
2022-12-23T22:48:26.792Z,98987.59
2022-12-23T22:51:03.738Z,98981.53
2022-12-23T22:53:31.307Z,98979.78
2022-12-23T22:56:02.833Z,98995.34
2022-12-23T22:58:32.434Z,98992.03
2022-12-23T23:01:01.156Z,98986.56
2022-12-23T23:03:29.378Z,98979.88
2022-12-23T23:06:01.366Z,98987.41
2022-12-23T23:08:29.810Z,98984.66
2022-12-23T23:11:02.586Z,98985.22
2022-12-23T23:13:32.551Z,98982.25
2022-12-23T23:16:00.631Z,98983.00
2022-12-23T23:18:29.016Z,98975.66
2022-12-23T23:20:56.373Z,98974.91
2022-12-23T23:23:23.929Z,98978.50
2022-12-23T23:25:51.139Z,98979.91
2022-12-23T23:28:19.889Z,98976.44
2022-12-23T23:30:47.062Z,98976.28
2022-12-23T23:33:14.239Z,98975.94
2022-12-23T23:35:42.118Z,98981.13
2022-12-23T23:38:09.826Z,98972.75
2022-12-23T23:40:37.084Z,98977.72
2022-12-23T23:43:04.646Z,98975.19
2022-12-23T23:45:31.877Z,98970.66
2022-12-23T23:47:59.590Z,98980.69
2022-12-23T23:50:26.782Z,98987.31
2022-12-23T23:52:53.966Z,98983.59
2022-12-23T23:55:21.569Z,98971.66
2022-12-23T23:57:48.790Z,98982.03
